sensor_id;sensor_type;location;lat;lon;timestamp;P1;durP1;ratioP1;P2;durP2;ratioP2
19907;SDS011;10116;53.112;7.356;2024-03-08T00:02:16;9.70;;;8.80;;
19907;SDS011;10116;53.112;7.356;2024-03-08T00:04:41;9.40;;;8.50;;
19907;SDS011;10116;53.112;7.356;2024-03-08T00:07:07;9.40;;;8.60;;
19907;SDS011;10116;53.112;7.356;2024-03-08T00:09:33;10.00;;;9.20;;
19907;SDS011;10116;53.112;7.356;2024-03-08T00:11:59;9.63;;;8.73;;
19907;SDS011;10116;53.112;7.356;2024-03-08T00:14:24;10.87;;;9.47;;
19907;SDS011;10116;53.112;7.356;2024-03-08T00:16:50;11.83;;;8.97;;
19907;SDS011;10116;53.112;7.356;2024-03-08T00:19:17;10.20;;;9.30;;
19907;SDS011;10116;53.112;7.356;2024-03-08T00:21:43;9.83;;;8.90;;
19907;SDS011;10116;53.112;7.356;2024-03-08T00:24:10;10.33;;;9.33;;
19907;SDS011;10116;53.112;7.356;2024-03-08T00:26:35;10.73;;;8.97;;
19907;SDS011;10116;53.112;7.356;2024-03-08T00:29:01;9.80;;;8.90;;
19907;SDS011;10116;53.112;7.356;2024-03-08T00:31:28;9.80;;;8.90;;
19907;SDS011;10116;53.112;7.356;2024-03-08T00:33:55;10.47;;;9.47;;
19907;SDS011;10116;53.112;7.356;2024-03-08T00:36:22;11.53;;;9.00;;
19907;SDS011;10116;53.112;7.356;2024-03-08T00:38:47;10.80;;;9.70;;
19907;SDS011;10116;53.112;7.356;2024-03-08T00:41:13;10.10;;;9.20;;
19907;SDS011;10116;53.112;7.356;2024-03-08T00:43:39;10.10;;;9.10;;
19907;SDS011;10116;53.112;7.356;2024-03-08T00:46:04;12.23;;;10.93;;
19907;SDS011;10116;53.112;7.356;2024-03-08T00:48:30;11.40;;;10.37;;
19907;SDS011;10116;53.112;7.356;2024-03-08T00:50:56;10.93;;;9.90;;
19907;SDS011;10116;53.112;7.356;2024-03-08T00:53:22;10.10;;;9.20;;
19907;SDS011;10116;53.112;7.356;2024-03-08T00:55:48;11.40;;;10.30;;
19907;SDS011;10116;53.112;7.356;2024-03-08T00:58:13;11.37;;;10.20;;
19907;SDS011;10116;53.112;7.356;2024-03-08T01:00:39;10.67;;;9.63;;
19907;SDS011;10116;53.112;7.356;2024-03-08T01:03:05;10.83;;;9.73;;
19907;SDS011;10116;53.112;7.356;2024-03-08T01:05:31;10.00;;;9.00;;
19907;SDS011;10116;53.112;7.356;2024-03-08T01:07:57;11.03;;;10.00;;
19907;SDS011;10116;53.112;7.356;2024-03-08T01:10:23;10.93;;;9.93;;
19907;SDS011;10116;53.112;7.356;2024-03-08T01:12:49;11.63;;;9.90;;
19907;SDS011;10116;53.112;7.356;2024-03-08T01:15:19;10.40;;;9.40;;
19907;SDS011;10116;53.112;7.356;2024-03-08T01:17:45;11.30;;;10.20;;
19907;SDS011;10116;53.112;7.356;2024-03-08T01:20:11;10.83;;;9.93;;
19907;SDS011;10116;53.112;7.356;2024-03-08T01:22:37;10.97;;;9.87;;
19907;SDS011;10116;53.112;7.356;2024-03-08T01:25:03;11.33;;;9.43;;
19907;SDS011;10116;53.112;7.356;2024-03-08T01:27:30;9.93;;;9.13;;
19907;SDS011;10116;53.112;7.356;2024-03-08T01:29:56;10.70;;;9.70;;
19907;SDS011;10116;53.112;7.356;2024-03-08T01:32:21;11.13;;;9.40;;
19907;SDS011;10116;53.112;7.356;2024-03-08T01:34:48;9.67;;;8.77;;
19907;SDS011;10116;53.112;7.356;2024-03-08T01:37:14;10.93;;;9.33;;
19907;SDS011;10116;53.112;7.356;2024-03-08T01:39:40;11.10;;;10.00;;
19907;SDS011;10116;53.112;7.356;2024-03-08T01:42:05;11.53;;;10.37;;
19907;SDS011;10116;53.112;7.356;2024-03-08T01:44:31;10.20;;;9.30;;
19907;SDS011;10116;53.112;7.356;2024-03-08T01:46:56;11.17;;;9.97;;
19907;SDS011;10116;53.112;7.356;2024-03-08T01:49:22;10.73;;;9.63;;
19907;SDS011;10116;53.112;7.356;2024-03-08T01:51:51;10.50;;;9.50;;
19907;SDS011;10116;53.112;7.356;2024-03-08T01:54:16;9.80;;;8.80;;
19907;SDS011;10116;53.112;7.356;2024-03-08T01:56:44;10.90;;;9.60;;
19907;SDS011;10116;53.112;7.356;2024-03-08T01:59:11;10.43;;;9.53;;
19907;SDS011;10116;53.112;7.356;2024-03-08T02:01:39;10.20;;;9.30;;
19907;SDS011;10116;53.112;7.356;2024-03-08T02:04:05;11.07;;;9.97;;
19907;SDS011;10116;53.112;7.356;2024-03-08T02:06:32;11.03;;;9.93;;
19907;SDS011;10116;53.112;7.356;2024-03-08T02:08:58;9.60;;;8.70;;
19907;SDS011;10116;53.112;7.356;2024-03-08T02:11:24;9.57;;;8.67;;
19907;SDS011;10116;53.112;7.356;2024-03-08T02:13:49;10.40;;;9.07;;
19907;SDS011;10116;53.112;7.356;2024-03-08T02:16:20;10.23;;;9.07;;
19907;SDS011;10116;53.112;7.356;2024-03-08T02:18:46;10.27;;;9.23;;
19907;SDS011;10116;53.112;7.356;2024-03-08T02:21:12;9.90;;;9.00;;
19907;SDS011;10116;53.112;7.356;2024-03-08T02:23:38;10.00;;;9.10;;
19907;SDS011;10116;53.112;7.356;2024-03-08T02:26:05;11.40;;;10.33;;
19907;SDS011;10116;53.112;7.356;2024-03-08T02:28:32;9.57;;;8.63;;
19907;SDS011;10116;53.112;7.356;2024-03-08T02:30:59;10.07;;;8.70;;
19907;SDS011;10116;53.112;7.356;2024-03-08T02:33:25;10.07;;;8.40;;
19907;SDS011;10116;53.112;7.356;2024-03-08T02:35:52;10.00;;;9.13;;
19907;SDS011;10116;53.112;7.356;2024-03-08T02:38:18;10.03;;;9.03;;
19907;SDS011;10116;53.112;7.356;2024-03-08T02:40:45;10.93;;;9.83;;
19907;SDS011;10116;53.112;7.356;2024-03-08T02:43:12;9.53;;;8.60;;
19907;SDS011;10116;53.112;7.356;2024-03-08T02:45:39;9.60;;;8.70;;
19907;SDS011;10116;53.112;7.356;2024-03-08T02:48:07;10.23;;;9.33;;
19907;SDS011;10116;53.112;7.356;2024-03-08T02:50:33;9.50;;;8.50;;
19907;SDS011;10116;53.112;7.356;2024-03-08T02:53:00;13.80;;;8.63;;
19907;SDS011;10116;53.112;7.356;2024-03-08T02:55:26;9.00;;;8.20;;
19907;SDS011;10116;53.112;7.356;2024-03-08T02:57:51;9.03;;;8.23;;
19907;SDS011;10116;53.112;7.356;2024-03-08T03:00:19;9.20;;;8.30;;
19907;SDS011;10116;53.112;7.356;2024-03-08T03:02:46;10.70;;;8.60;;
19907;SDS011;10116;53.112;7.356;2024-03-08T03:05:12;9.10;;;8.20;;
19907;SDS011;10116;53.112;7.356;2024-03-08T03:07:39;9.30;;;8.43;;
19907;SDS011;10116;53.112;7.356;2024-03-08T03:10:04;9.47;;;8.57;;
19907;SDS011;10116;53.112;7.356;2024-03-08T03:12:32;8.83;;;7.93;;
19907;SDS011;10116;53.112;7.356;2024-03-08T03:14:58;9.03;;;7.90;;
19907;SDS011;10116;53.112;7.356;2024-03-08T03:17:25;8.77;;;7.97;;
19907;SDS011;10116;53.112;7.356;2024-03-08T03:19:54;10.37;;;8.63;;
19907;SDS011;10116;53.112;7.356;2024-03-08T03:22:20;8.53;;;7.73;;
19907;SDS011;10116;53.112;7.356;2024-03-08T03:24:46;9.37;;;8.57;;
19907;SDS011;10116;53.112;7.356;2024-03-08T03:27:15;8.27;;;7.67;;
19907;SDS011;10116;53.112;7.356;2024-03-08T03:29:41;8.50;;;7.70;;
19907;SDS011;10116;53.112;7.356;2024-03-08T03:32:13;8.90;;;8.10;;
19907;SDS011;10116;53.112;7.356;2024-03-08T03:34:40;9.30;;;8.40;;
19907;SDS011;10116;53.112;7.356;2024-03-08T03:37:06;9.47;;;8.50;;
19907;SDS011;10116;53.112;7.356;2024-03-08T03:39:33;8.87;;;8.17;;
19907;SDS011;10116;53.112;7.356;2024-03-08T03:41:59;8.57;;;7.70;;
19907;SDS011;10116;53.112;7.356;2024-03-08T03:44:28;9.40;;;8.50;;
19907;SDS011;10116;53.112;7.356;2024-03-08T03:46:54;8.60;;;7.70;;
19907;SDS011;10116;53.112;7.356;2024-03-08T03:49:19;7.30;;;6.60;;
19907;SDS011;10116;53.112;7.356;2024-03-08T03:51:45;8.70;;;7.80;;
19907;SDS011;10116;53.112;7.356;2024-03-08T03:54:11;9.83;;;8.30;;
19907;SDS011;10116;53.112;7.356;2024-03-08T03:56:37;8.90;;;8.07;;
19907;SDS011;10116;53.112;7.356;2024-03-08T03:59:05;8.83;;;8.00;;
19907;SDS011;10116;53.112;7.356;2024-03-08T04:01:31;7.90;;;7.20;;
19907;SDS011;10116;53.112;7.356;2024-03-08T04:03:57;9.57;;;8.43;;
19907;SDS011;10116;53.112;7.356;2024-03-08T04:06:23;8.70;;;7.90;;
19907;SDS011;10116;53.112;7.356;2024-03-08T04:08:49;9.00;;;8.13;;
19907;SDS011;10116;53.112;7.356;2024-03-08T04:11:15;9.03;;;8.13;;
19907;SDS011;10116;53.112;7.356;2024-03-08T04:13:42;8.87;;;8.07;;
19907;SDS011;10116;53.112;7.356;2024-03-08T04:16:08;9.07;;;8.23;;
19907;SDS011;10116;53.112;7.356;2024-03-08T04:18:36;9.50;;;8.60;;
19907;SDS011;10116;53.112;7.356;2024-03-08T04:21:03;9.57;;;8.57;;
19907;SDS011;10116;53.112;7.356;2024-03-08T04:23:34;9.60;;;8.70;;
19907;SDS011;10116;53.112;7.356;2024-03-08T04:26:01;8.73;;;7.93;;
19907;SDS011;10116;53.112;7.356;2024-03-08T04:28:31;8.73;;;7.83;;
19907;SDS011;10116;53.112;7.356;2024-03-08T04:30:57;9.13;;;8.13;;
19907;SDS011;10116;53.112;7.356;2024-03-08T04:33:25;8.73;;;7.90;;
19907;SDS011;10116;53.112;7.356;2024-03-08T04:35:51;10.27;;;7.70;;
19907;SDS011;10116;53.112;7.356;2024-03-08T04:38:18;10.60;;;8.50;;
19907;SDS011;10116;53.112;7.356;2024-03-08T04:40:44;8.60;;;7.80;;
19907;SDS011;10116;53.112;7.356;2024-03-08T04:43:10;8.30;;;7.60;;
19907;SDS011;10116;53.112;7.356;2024-03-08T04:45:35;9.47;;;8.13;;
19907;SDS011;10116;53.112;7.356;2024-03-08T04:48:02;8.50;;;7.70;;
19907;SDS011;10116;53.112;7.356;2024-03-08T04:50:28;8.43;;;7.70;;
19907;SDS011;10116;53.112;7.356;2024-03-08T04:52:54;9.40;;;7.77;;
19907;SDS011;10116;53.112;7.356;2024-03-08T04:55:20;8.23;;;7.60;;
19907;SDS011;10116;53.112;7.356;2024-03-08T04:57:46;8.80;;;8.00;;
19907;SDS011;10116;53.112;7.356;2024-03-08T05:00:20;8.97;;;8.10;;
19907;SDS011;10116;53.112;7.356;2024-03-08T05:02:46;8.50;;;7.27;;
19907;SDS011;10116;53.112;7.356;2024-03-08T05:05:11;9.30;;;8.50;;
19907;SDS011;10116;53.112;7.356;2024-03-08T05:07:38;9.00;;;8.20;;
19907;SDS011;10116;53.112;7.356;2024-03-08T05:10:05;9.87;;;8.97;;
19907;SDS011;10116;53.112;7.356;2024-03-08T05:12:31;8.30;;;7.50;;
19907;SDS011;10116;53.112;7.356;2024-03-08T05:15:00;11.57;;;8.47;;
19907;SDS011;10116;53.112;7.356;2024-03-08T05:17:26;8.93;;;8.07;;
19907;SDS011;10116;53.112;7.356;2024-03-08T05:19:52;9.13;;;8.30;;
19907;SDS011;10116;53.112;7.356;2024-03-08T05:22:18;8.90;;;8.10;;
19907;SDS011;10116;53.112;7.356;2024-03-08T05:24:44;8.80;;;8.00;;
19907;SDS011;10116;53.112;7.356;2024-03-08T05:27:09;8.83;;;7.50;;
19907;SDS011;10116;53.112;7.356;2024-03-08T05:29:36;9.20;;;8.30;;
19907;SDS011;10116;53.112;7.356;2024-03-08T05:32:02;8.73;;;7.93;;
19907;SDS011;10116;53.112;7.356;2024-03-08T05:34:29;9.73;;;8.33;;
19907;SDS011;10116;53.112;7.356;2024-03-08T05:36:54;7.87;;;7.27;;
19907;SDS011;10116;53.112;7.356;2024-03-08T05:39:20;8.57;;;7.77;;
19907;SDS011;10116;53.112;7.356;2024-03-08T05:41:46;8.60;;;7.80;;
19907;SDS011;10116;53.112;7.356;2024-03-08T05:44:12;8.23;;;7.43;;
19907;SDS011;10116;53.112;7.356;2024-03-08T05:46:38;7.73;;;7.03;;
19907;SDS011;10116;53.112;7.356;2024-03-08T05:49:07;8.93;;;8.10;;
19907;SDS011;10116;53.112;7.356;2024-03-08T05:51:36;9.03;;;8.13;;
19907;SDS011;10116;53.112;7.356;2024-03-08T05:54:04;8.87;;;7.97;;
19907;SDS011;10116;53.112;7.356;2024-03-08T05:56:36;8.87;;;8.07;;
19907;SDS011;10116;53.112;7.356;2024-03-08T05:59:03;8.70;;;7.90;;
19907;SDS011;10116;53.112;7.356;2024-03-08T06:01:29;8.03;;;7.30;;
19907;SDS011;10116;53.112;7.356;2024-03-08T06:03:55;8.63;;;7.90;;
19907;SDS011;10116;53.112;7.356;2024-03-08T06:06:22;8.43;;;7.70;;
19907;SDS011;10116;53.112;7.356;2024-03-08T06:08:51;8.47;;;7.70;;
19907;SDS011;10116;53.112;7.356;2024-03-08T06:11:36;8.47;;;7.67;;
19907;SDS011;10116;53.112;7.356;2024-03-08T06:14:02;8.43;;;7.73;;
19907;SDS011;10116;53.112;7.356;2024-03-08T06:16:28;8.33;;;7.53;;
19907;SDS011;10116;53.112;7.356;2024-03-08T06:18:57;11.83;;;8.77;;
19907;SDS011;10116;53.112;7.356;2024-03-08T06:21:23;8.50;;;7.60;;
19907;SDS011;10116;53.112;7.356;2024-03-08T06:23:52;11.20;;;7.40;;
19907;SDS011;10116;53.112;7.356;2024-03-08T06:26:19;8.30;;;7.50;;
19907;SDS011;10116;53.112;7.356;2024-03-08T06:28:49;7.40;;;6.70;;
19907;SDS011;10116;53.112;7.356;2024-03-08T06:31:16;13.23;;;10.17;;
19907;SDS011;10116;53.112;7.356;2024-03-08T06:33:43;11.57;;;8.67;;
19907;SDS011;10116;53.112;7.356;2024-03-08T06:36:09;17.00;;;9.03;;
19907;SDS011;10116;53.112;7.356;2024-03-08T06:38:36;11.80;;;8.17;;
19907;SDS011;10116;53.112;7.356;2024-03-08T06:41:07;8.73;;;7.90;;
19907;SDS011;10116;53.112;7.356;2024-03-08T06:43:41;9.07;;;7.20;;
19907;SDS011;10116;53.112;7.356;2024-03-08T06:46:07;8.27;;;7.57;;
19907;SDS011;10116;53.112;7.356;2024-03-08T06:48:33;9.77;;;8.30;;
19907;SDS011;10116;53.112;7.356;2024-03-08T06:51:00;9.50;;;8.50;;
19907;SDS011;10116;53.112;7.356;2024-03-08T06:53:25;8.53;;;7.20;;
19907;SDS011;10116;53.112;7.356;2024-03-08T06:55:51;11.53;;;8.17;;
19907;SDS011;10116;53.112;7.356;2024-03-08T06:58:16;8.30;;;7.50;;
19907;SDS011;10116;53.112;7.356;2024-03-08T07:00:42;8.93;;;7.80;;
19907;SDS011;10116;53.112;7.356;2024-03-08T07:03:09;11.63;;;8.30;;
19907;SDS011;10116;53.112;7.356;2024-03-08T07:05:37;8.53;;;7.63;;
19907;SDS011;10116;53.112;7.356;2024-03-08T07:08:04;10.37;;;8.60;;
19907;SDS011;10116;53.112;7.356;2024-03-08T07:10:31;10.00;;;8.07;;
19907;SDS011;10116;53.112;7.356;2024-03-08T07:12:56;10.50;;;7.37;;
19907;SDS011;10116;53.112;7.356;2024-03-08T07:15:22;8.50;;;7.60;;
19907;SDS011;10116;53.112;7.356;2024-03-08T07:17:48;8.23;;;7.47;;
19907;SDS011;10116;53.112;7.356;2024-03-08T07:20:14;9.20;;;7.50;;
19907;SDS011;10116;53.112;7.356;2024-03-08T07:22:44;6.83;;;6.23;;
19907;SDS011;10116;53.112;7.356;2024-03-08T07:25:12;7.90;;;7.20;;
19907;SDS011;10116;53.112;7.356;2024-03-08T07:27:54;9.20;;;8.10;;
19907;SDS011;10116;53.112;7.356;2024-03-08T07:30:21;8.50;;;7.70;;
19907;SDS011;10116;53.112;7.356;2024-03-08T07:33:06;9.23;;;7.93;;
19907;SDS011;10116;53.112;7.356;2024-03-08T07:35:32;9.27;;;8.00;;
19907;SDS011;10116;53.112;7.356;2024-03-08T07:38:05;8.90;;;8.00;;
19907;SDS011;10116;53.112;7.356;2024-03-08T07:40:40;9.10;;;8.20;;
19907;SDS011;10116;53.112;7.356;2024-03-08T07:43:12;9.43;;;8.50;;
19907;SDS011;10116;53.112;7.356;2024-03-08T07:45:38;8.60;;;7.80;;
19907;SDS011;10116;53.112;7.356;2024-03-08T07:48:04;9.40;;;8.50;;
19907;SDS011;10116;53.112;7.356;2024-03-08T07:50:34;8.80;;;8.10;;
19907;SDS011;10116;53.112;7.356;2024-03-08T07:53:07;9.03;;;8.30;;
19907;SDS011;10116;53.112;7.356;2024-03-08T07:55:33;9.43;;;8.00;;
19907;SDS011;10116;53.112;7.356;2024-03-08T07:58:00;9.40;;;8.60;;
19907;SDS011;10116;53.112;7.356;2024-03-08T08:00:26;9.20;;;8.30;;
19907;SDS011;10116;53.112;7.356;2024-03-08T08:02:52;10.07;;;8.47;;
19907;SDS011;10116;53.112;7.356;2024-03-08T08:05:18;8.63;;;7.87;;
19907;SDS011;10116;53.112;7.356;2024-03-08T08:07:45;9.90;;;8.90;;
19907;SDS011;10116;53.112;7.356;2024-03-08T08:10:11;8.70;;;7.80;;
19907;SDS011;10116;53.112;7.356;2024-03-08T08:12:43;8.63;;;7.73;;
19907;SDS011;10116;53.112;7.356;2024-03-08T08:15:10;9.30;;;8.50;;
19907;SDS011;10116;53.112;7.356;2024-03-08T08:17:35;9.17;;;8.13;;
19907;SDS011;10116;53.112;7.356;2024-03-08T08:20:01;17.70;;;10.10;;
19907;SDS011;10116;53.112;7.356;2024-03-08T08:22:30;9.30;;;8.50;;
19907;SDS011;10116;53.112;7.356;2024-03-08T08:24:55;10.20;;;8.23;;
19907;SDS011;10116;53.112;7.356;2024-03-08T08:27:21;9.73;;;8.77;;
19907;SDS011;10116;53.112;7.356;2024-03-08T08:29:47;9.50;;;8.63;;
19907;SDS011;10116;53.112;7.356;2024-03-08T08:32:18;9.70;;;8.53;;
19907;SDS011;10116;53.112;7.356;2024-03-08T08:34:45;10.17;;;8.63;;
19907;SDS011;10116;53.112;7.356;2024-03-08T08:37:11;8.23;;;7.43;;
19907;SDS011;10116;53.112;7.356;2024-03-08T08:39:37;9.60;;;7.87;;
19907;SDS011;10116;53.112;7.356;2024-03-08T08:42:03;9.53;;;8.60;;
19907;SDS011;10116;53.112;7.356;2024-03-08T08:44:29;17.87;;;16.03;;
19907;SDS011;10116;53.112;7.356;2024-03-08T08:47:00;16.60;;;13.67;;
19907;SDS011;10116;53.112;7.356;2024-03-08T08:49:29;13.00;;;11.70;;
19907;SDS011;10116;53.112;7.356;2024-03-08T08:51:55;11.33;;;10.07;;
19907;SDS011;10116;53.112;7.356;2024-03-08T08:54:23;10.63;;;8.97;;
19907;SDS011;10116;53.112;7.356;2024-03-08T08:56:50;10.00;;;9.10;;
19907;SDS011;10116;53.112;7.356;2024-03-08T08:59:16;9.77;;;8.83;;
19907;SDS011;10116;53.112;7.356;2024-03-08T09:01:44;9.30;;;8.40;;
19907;SDS011;10116;53.112;7.356;2024-03-08T09:04:12;10.13;;;8.57;;
19907;SDS011;10116;53.112;7.356;2024-03-08T09:06:37;9.83;;;8.80;;
19907;SDS011;10116;53.112;7.356;2024-03-08T09:09:06;10.07;;;9.07;;
19907;SDS011;10116;53.112;7.356;2024-03-08T09:11:34;9.40;;;8.57;;
19907;SDS011;10116;53.112;7.356;2024-03-08T09:14:00;13.23;;;10.83;;
19907;SDS011;10116;53.112;7.356;2024-03-08T09:16:27;13.90;;;11.00;;
19907;SDS011;10116;53.112;7.356;2024-03-08T09:18:52;11.90;;;10.67;;
19907;SDS011;10116;53.112;7.356;2024-03-08T09:21:18;12.40;;;11.10;;
19907;SDS011;10116;53.112;7.356;2024-03-08T09:23:44;15.47;;;11.27;;
19907;SDS011;10116;53.112;7.356;2024-03-08T09:26:10;11.70;;;10.50;;
19907;SDS011;10116;53.112;7.356;2024-03-08T09:28:37;12.40;;;10.83;;
19907;SDS011;10116;53.112;7.356;2024-03-08T09:31:03;10.70;;;9.80;;
19907;SDS011;10116;53.112;7.356;2024-03-08T09:33:30;13.07;;;11.67;;
19907;SDS011;10116;53.112;7.356;2024-03-08T09:35:56;14.17;;;11.60;;
19907;SDS011;10116;53.112;7.356;2024-03-08T09:38:25;13.10;;;11.67;;
19907;SDS011;10116;53.112;7.356;2024-03-08T09:40:51;13.77;;;11.63;;
19907;SDS011;10116;53.112;7.356;2024-03-08T09:43:18;12.93;;;11.67;;
19907;SDS011;10116;53.112;7.356;2024-03-08T09:45:44;13.00;;;11.80;;
19907;SDS011;10116;53.112;7.356;2024-03-08T09:48:14;13.23;;;12.00;;
19907;SDS011;10116;53.112;7.356;2024-03-08T09:50:44;17.80;;;11.53;;
19907;SDS011;10116;53.112;7.356;2024-03-08T09:53:11;11.80;;;10.70;;
19907;SDS011;10116;53.112;7.356;2024-03-08T09:55:40;13.97;;;12.57;;
19907;SDS011;10116;53.112;7.356;2024-03-08T09:58:07;12.87;;;11.60;;
19907;SDS011;10116;53.112;7.356;2024-03-08T10:00:56;13.60;;;12.13;;
19907;SDS011;10116;53.112;7.356;2024-03-08T10:03:22;13.07;;;11.77;;
19907;SDS011;10116;53.112;7.356;2024-03-08T10:05:51;13.20;;;11.80;;
19907;SDS011;10116;53.112;7.356;2024-03-08T10:08:17;12.00;;;10.90;;
19907;SDS011;10116;53.112;7.356;2024-03-08T10:10:42;18.47;;;11.20;;
19907;SDS011;10116;53.112;7.356;2024-03-08T10:13:09;11.67;;;10.60;;
19907;SDS011;10116;53.112;7.356;2024-03-08T10:15:35;11.50;;;10.50;;
19907;SDS011;10116;53.112;7.356;2024-03-08T10:18:01;11.13;;;9.93;;
19907;SDS011;10116;53.112;7.356;2024-03-08T10:20:28;11.90;;;10.67;;
19907;SDS011;10116;53.112;7.356;2024-03-08T10:23:02;11.73;;;10.63;;
19907;SDS011;10116;53.112;7.356;2024-03-08T10:25:30;10.40;;;9.50;;
19907;SDS011;10116;53.112;7.356;2024-03-08T10:27:59;11.03;;;10.03;;
19907;SDS011;10116;53.112;7.356;2024-03-08T10:30:29;11.03;;;10.03;;
19907;SDS011;10116;53.112;7.356;2024-03-08T10:32:54;10.77;;;9.80;;
19907;SDS011;10116;53.112;7.356;2024-03-08T10:35:20;11.13;;;10.13;;
19907;SDS011;10116;53.112;7.356;2024-03-08T10:37:48;12.00;;;10.80;;
19907;SDS011;10116;53.112;7.356;2024-03-08T10:40:22;10.30;;;9.33;;
19907;SDS011;10116;53.112;7.356;2024-03-08T10:42:56;10.27;;;9.17;;
19907;SDS011;10116;53.112;7.356;2024-03-08T10:48:42;10.90;;;9.90;;
19907;SDS011;10116;53.112;7.356;2024-03-08T10:51:04;11.90;;;10.33;;
19907;SDS011;10116;53.112;7.356;2024-03-08T10:53:32;11.17;;;10.17;;
19907;SDS011;10116;53.112;7.356;2024-03-08T10:55:59;11.10;;;10.10;;
19907;SDS011;10116;53.112;7.356;2024-03-08T10:58:25;11.30;;;10.23;;
19907;SDS011;10116;53.112;7.356;2024-03-08T11:00:54;11.63;;;10.43;;
19907;SDS011;10116;53.112;7.356;2024-03-08T11:06:06;11.40;;;9.30;;
19907;SDS011;10116;53.112;7.356;2024-03-08T11:08:35;10.70;;;9.70;;
19907;SDS011;10116;53.112;7.356;2024-03-08T11:11:01;11.73;;;10.63;;
19907;SDS011;10116;53.112;7.356;2024-03-08T11:13:34;11.00;;;10.00;;
19907;SDS011;10116;53.112;7.356;2024-03-08T11:16:09;11.10;;;10.10;;
19907;SDS011;10116;53.112;7.356;2024-03-08T11:18:36;10.83;;;9.73;;
19907;SDS011;10116;53.112;7.356;2024-03-08T11:21:06;10.87;;;9.87;;
19907;SDS011;10116;53.112;7.356;2024-03-08T11:23:37;11.73;;;10.53;;
19907;SDS011;10116;53.112;7.356;2024-03-08T11:26:15;11.43;;;10.40;;
19907;SDS011;10116;53.112;7.356;2024-03-08T11:28:45;12.90;;;9.63;;
19907;SDS011;10116;53.112;7.356;2024-03-08T11:33:39;10.80;;;9.73;;
19907;SDS011;10116;53.112;7.356;2024-03-08T11:36:12;11.90;;;10.70;;
19907;SDS011;10116;53.112;7.356;2024-03-08T11:38:48;10.83;;;9.73;;
19907;SDS011;10116;53.112;7.356;2024-03-08T11:41:14;9.80;;;8.90;;
19907;SDS011;10116;53.112;7.356;2024-03-08T11:43:43;10.20;;;9.30;;
19907;SDS011;10116;53.112;7.356;2024-03-08T11:46:09;9.10;;;8.33;;
19907;SDS011;10116;53.112;7.356;2024-03-08T11:48:41;9.00;;;8.30;;
19907;SDS011;10116;53.112;7.356;2024-03-08T11:51:08;9.93;;;9.10;;
19907;SDS011;10116;53.112;7.356;2024-03-08T11:53:38;9.37;;;8.57;;
19907;SDS011;10116;53.112;7.356;2024-03-08T11:56:16;8.93;;;8.10;;
19907;SDS011;10116;53.112;7.356;2024-03-08T11:58:52;9.97;;;9.00;;
19907;SDS011;10116;53.112;7.356;2024-03-08T12:01:22;9.60;;;8.60;;
19907;SDS011;10116;53.112;7.356;2024-03-08T12:03:55;10.00;;;9.10;;
19907;SDS011;10116;53.112;7.356;2024-03-08T12:06:24;11.10;;;8.70;;
19907;SDS011;10116;53.112;7.356;2024-03-08T12:08:50;11.00;;;9.10;;
19907;SDS011;10116;53.112;7.356;2024-03-08T12:11:19;9.60;;;8.73;;
19907;SDS011;10116;53.112;7.356;2024-03-08T12:13:48;9.90;;;8.90;;
19907;SDS011;10116;53.112;7.356;2024-03-08T12:16:17;10.87;;;9.90;;
19907;SDS011;10116;53.112;7.356;2024-03-08T12:18:43;10.30;;;9.23;;
19907;SDS011;10116;53.112;7.356;2024-03-08T12:21:10;9.43;;;8.73;;
19907;SDS011;10116;53.112;7.356;2024-03-08T12:23:37;8.93;;;8.13;;
19907;SDS011;10116;53.112;7.356;2024-03-08T12:28:43;11.90;;;10.63;;
19907;SDS011;10116;53.112;7.356;2024-03-08T12:31:11;10.93;;;9.93;;
19907;SDS011;10116;53.112;7.356;2024-03-08T12:33:46;10.53;;;9.60;;
19907;SDS011;10116;53.112;7.356;2024-03-08T12:36:14;13.17;;;9.80;;
19907;SDS011;10116;53.112;7.356;2024-03-08T12:38:44;11.00;;;9.90;;
19907;SDS011;10116;53.112;7.356;2024-03-08T12:41:13;10.80;;;9.80;;
19907;SDS011;10116;53.112;7.356;2024-03-08T12:43:42;11.83;;;10.73;;
19907;SDS011;10116;53.112;7.356;2024-03-08T12:46:22;11.83;;;10.40;;
19907;SDS011;10116;53.112;7.356;2024-03-08T12:48:51;19.83;;;13.70;;
19907;SDS011;10116;53.112;7.356;2024-03-08T12:51:20;15.13;;;11.27;;
19907;SDS011;10116;53.112;7.356;2024-03-08T12:53:46;13.70;;;10.50;;
19907;SDS011;10116;53.112;7.356;2024-03-08T12:56:33;12.00;;;10.20;;
19907;SDS011;10116;53.112;7.356;2024-03-08T12:58:59;11.30;;;9.80;;
19907;SDS011;10116;53.112;7.356;2024-03-08T13:01:25;11.57;;;9.90;;
19907;SDS011;10116;53.112;7.356;2024-03-08T13:03:57;10.17;;;9.10;;
19907;SDS011;10116;53.112;7.356;2024-03-08T13:06:23;11.30;;;9.63;;
19907;SDS011;10116;53.112;7.356;2024-03-08T13:08:52;10.30;;;9.40;;
19907;SDS011;10116;53.112;7.356;2024-03-08T13:11:18;10.50;;;9.47;;
19907;SDS011;10116;53.112;7.356;2024-03-08T13:13:44;16.23;;;9.13;;
19907;SDS011;10116;53.112;7.356;2024-03-08T13:16:11;9.80;;;9.00;;
19907;SDS011;10116;53.112;7.356;2024-03-08T13:18:39;11.33;;;9.13;;
19907;SDS011;10116;53.112;7.356;2024-03-08T13:21:11;9.80;;;8.80;;
19907;SDS011;10116;53.112;7.356;2024-03-08T13:23:39;9.13;;;8.33;;
19907;SDS011;10116;53.112;7.356;2024-03-08T13:26:09;9.37;;;8.47;;
19907;SDS011;10116;53.112;7.356;2024-03-08T13:28:41;9.33;;;8.43;;
19907;SDS011;10116;53.112;7.356;2024-03-08T13:31:08;9.10;;;8.30;;
19907;SDS011;10116;53.112;7.356;2024-03-08T13:33:39;9.57;;;8.67;;
19907;SDS011;10116;53.112;7.356;2024-03-08T13:36:07;9.20;;;8.40;;
19907;SDS011;10116;53.112;7.356;2024-03-08T13:38:40;9.50;;;8.60;;
19907;SDS011;10116;53.112;7.356;2024-03-08T13:41:07;9.57;;;8.67;;
19907;SDS011;10116;53.112;7.356;2024-03-08T13:43:33;9.57;;;8.70;;
19907;SDS011;10116;53.112;7.356;2024-03-08T13:46:01;9.67;;;8.87;;
19907;SDS011;10116;53.112;7.356;2024-03-08T13:48:27;8.93;;;8.20;;
19907;SDS011;10116;53.112;7.356;2024-03-08T13:50:53;8.70;;;8.00;;
19907;SDS011;10116;53.112;7.356;2024-03-08T13:53:27;8.40;;;7.70;;
19907;SDS011;10116;53.112;7.356;2024-03-08T13:55:53;9.53;;;8.63;;
19907;SDS011;10116;53.112;7.356;2024-03-08T13:58:22;10.67;;;9.70;;
19907;SDS011;10116;53.112;7.356;2024-03-08T14:00:47;18.37;;;9.03;;
19907;SDS011;10116;53.112;7.356;2024-03-08T14:03:15;26.17;;;10.27;;
19907;SDS011;10116;53.112;7.356;2024-03-08T14:05:40;19.87;;;9.97;;
19907;SDS011;10116;53.112;7.356;2024-03-08T14:08:07;13.70;;;9.73;;
19907;SDS011;10116;53.112;7.356;2024-03-08T14:10:33;16.90;;;9.10;;
19907;SDS011;10116;53.112;7.356;2024-03-08T14:12:59;17.47;;;9.97;;
19907;SDS011;10116;53.112;7.356;2024-03-08T14:15:25;9.70;;;8.73;;
19907;SDS011;10116;53.112;7.356;2024-03-08T14:17:55;12.80;;;9.90;;
19907;SDS011;10116;53.112;7.356;2024-03-08T14:20:21;11.50;;;9.00;;
19907;SDS011;10116;53.112;7.356;2024-03-08T14:22:51;10.10;;;9.20;;
19907;SDS011;10116;53.112;7.356;2024-03-08T14:25:33;9.00;;;8.10;;
19907;SDS011;10116;53.112;7.356;2024-03-08T14:27:58;9.77;;;8.73;;
19907;SDS011;10116;53.112;7.356;2024-03-08T14:30:28;9.70;;;8.90;;
19907;SDS011;10116;53.112;7.356;2024-03-08T14:33:00;9.77;;;8.57;;
19907;SDS011;10116;53.112;7.356;2024-03-08T14:35:27;11.83;;;10.30;;
19907;SDS011;10116;53.112;7.356;2024-03-08T14:37:59;10.07;;;9.07;;
19907;SDS011;10116;53.112;7.356;2024-03-08T14:40:25;10.63;;;9.53;;
19907;SDS011;10116;53.112;7.356;2024-03-08T14:42:51;10.23;;;9.10;;
19907;SDS011;10116;53.112;7.356;2024-03-08T14:45:17;9.63;;;8.83;;
19907;SDS011;10116;53.112;7.356;2024-03-08T14:47:49;12.03;;;9.90;;
19907;SDS011;10116;53.112;7.356;2024-03-08T14:50:22;10.23;;;9.43;;
19907;SDS011;10116;53.112;7.356;2024-03-08T14:52:58;9.77;;;8.97;;